sensor_id;sensor_type;location;lat;lon;timestamp;pressure;altitude;pressure_sealevel;temperature;humidity
8334;BME280;4204;43.004;23.052;2023-06-26T00:02:23;93662.25;;;21.89;100.00
8334;BME280;4204;43.004;23.052;2023-06-26T00:04:51;93654.88;;;21.75;100.00
8334;BME280;4204;43.004;23.052;2023-06-26T00:07:20;93657.97;;;21.77;100.00
8334;BME280;4204;43.004;23.052;2023-06-26T00:09:49;93662.63;;;21.81;100.00
8334;BME280;4204;43.004;23.052;2023-06-26T00:12:16;93659.91;;;21.70;100.00
8334;BME280;4204;43.004;23.052;2023-06-26T00:14:44;93655.66;;;21.69;100.00
8334;BME280;4204;43.004;23.052;2023-06-26T00:17:12;93657.19;;;21.66;100.00
8334;BME280;4204;43.004;23.052;2023-06-26T00:19:40;93648.72;;;21.68;100.00
8334;BME280;4204;43.004;23.052;2023-06-26T00:22:07;93651.41;;;21.71;100.00
8334;BME280;4204;43.004;23.052;2023-06-26T00:24:35;93653.34;;;21.71;100.00
8334;BME280;4204;43.004;23.052;2023-06-26T00:27:04;93648.72;;;21.79;100.00
8334;BME280;4204;43.004;23.052;2023-06-26T00:29:32;93649.06;;;21.77;100.00
8334;BME280;4204;43.004;23.052;2023-06-26T00:32:00;93655.69;;;21.83;100.00
8334;BME280;4204;43.004;23.052;2023-06-26T00:34:27;93645.22;;;21.74;100.00
8334;BME280;4204;43.004;23.052;2023-06-26T00:36:55;93644.84;;;21.65;100.00
8334;BME280;4204;43.004;23.052;2023-06-26T00:39:24;93650.25;;;21.51;100.00
8334;BME280;4204;43.004;23.052;2023-06-26T00:41:52;93650.59;;;21.43;100.00
8334;BME280;4204;43.004;23.052;2023-06-26T00:44:22;93641.31;;;21.30;100.00
8334;BME280;4204;43.004;23.052;2023-06-26T00:46:50;93640.84;;;21.07;100.00
8334;BME280;4204;43.004;23.052;2023-06-26T00:49:19;93643.50;;;20.92;100.00
8334;BME280;4204;43.004;23.052;2023-06-26T00:51:46;93639.66;;;20.97;100.00
8334;BME280;4204;43.004;23.052;2023-06-26T00:54:14;93630.75;;;20.93;100.00
8334;BME280;4204;43.004;23.052;2023-06-26T00:56:46;93628.03;;;20.89;100.00
8334;BME280;4204;43.004;23.052;2023-06-26T00:59:14;93633.03;;;20.77;100.00
8334;BME280;4204;43.004;23.052;2023-06-26T01:01:43;93627.97;;;20.72;100.00
8334;BME280;4204;43.004;23.052;2023-06-26T01:04:11;93619.41;;;20.56;100.00
8334;BME280;4204;43.004;23.052;2023-06-26T01:06:45;93615.59;;;20.67;100.00
8334;BME280;4204;43.004;23.052;2023-06-26T01:09:16;93613.75;;;20.85;100.00
8334;BME280;4204;43.004;23.052;2023-06-26T01:11:45;93616.50;;;21.03;100.00
8334;BME280;4204;43.004;23.052;2023-06-26T01:14:13;93614.97;;;21.13;100.00
8334;BME280;4204;43.004;23.052;2023-06-26T01:16:41;93611.53;;;21.12;100.00
8334;BME280;4204;43.004;23.052;2023-06-26T01:19:19;93608.00;;;21.05;100.00
8334;BME280;4204;43.004;23.052;2023-06-26T01:21:55;93603.66;;;20.75;100.00
8334;BME280;4204;43.004;23.052;2023-06-26T01:24:25;93606.19;;;20.37;100.00
8334;BME280;4204;43.004;23.052;2023-06-26T01:27:00;93604.44;;;20.04;100.00
8334;BME280;4204;43.004;23.052;2023-06-26T01:29:31;93601.00;;;20.07;100.00
8334;BME280;4204;43.004;23.052;2023-06-26T01:32:00;93608.78;;;20.19;100.00
8334;BME280;4204;43.004;23.052;2023-06-26T01:34:29;93596.16;;;20.37;100.00
8334;BME280;4204;43.004;23.052;2023-06-26T01:36:57;93603.19;;;20.59;100.00
8334;BME280;4204;43.004;23.052;2023-06-26T01:39:26;93596.66;;;20.67;100.00
8334;BME280;4204;43.004;23.052;2023-06-26T01:41:53;93600.56;;;20.77;100.00
8334;BME280;4204;43.004;23.052;2023-06-26T01:44:26;93600.22;;;20.92;100.00
8334;BME280;4204;43.004;23.052;2023-06-26T01:46:59;93592.53;;;20.98;100.00
8334;BME280;4204;43.004;23.052;2023-06-26T01:49:44;93589.50;;;21.14;100.00
8334;BME280;4204;43.004;23.052;2023-06-26T01:52:19;93590.28;;;21.14;100.00
8334;BME280;4204;43.004;23.052;2023-06-26T01:54:56;93590.25;;;21.11;100.00
8334;BME280;4204;43.004;23.052;2023-06-26T01:57:27;93592.19;;;21.14;100.00
8334;BME280;4204;43.004;23.052;2023-06-26T01:59:57;93582.94;;;21.22;100.00
8334;BME280;4204;43.004;23.052;2023-06-26T02:02:28;93580.22;;;21.15;100.00
8334;BME280;4204;43.004;23.052;2023-06-26T02:04:56;93595.25;;;21.02;100.00
8334;BME280;4204;43.004;23.052;2023-06-26T02:07:24;93589.81;;;20.94;100.00
8334;BME280;4204;43.004;23.052;2023-06-26T02:09:52;93594.03;;;20.88;100.00
8334;BME280;4204;43.004;23.052;2023-06-26T02:12:20;93593.25;;;20.88;100.00
8334;BME280;4204;43.004;23.052;2023-06-26T02:14:47;93593.25;;;20.84;100.00
8334;BME280;4204;43.004;23.052;2023-06-26T02:17:18;93597.50;;;20.82;100.00
8334;BME280;4204;43.004;23.052;2023-06-26T02:19:46;93595.56;;;20.82;100.00
8334;BME280;4204;43.004;23.052;2023-06-26T02:22:14;93590.13;;;20.68;100.00
8334;BME280;4204;43.004;23.052;2023-06-26T02:24:43;93589.34;;;20.71;100.00
8334;BME280;4204;43.004;23.052;2023-06-26T02:27:10;93590.94;;;20.79;100.00
8334;BME280;4204;43.004;23.052;2023-06-26T02:29:39;93583.19;;;20.74;100.00
8334;BME280;4204;43.004;23.052;2023-06-26T02:32:08;93583.97;;;20.75;100.00
8334;BME280;4204;43.004;23.052;2023-06-26T02:34:37;93585.16;;;20.84;100.00
8334;BME280;4204;43.004;23.052;2023-06-26T02:37:05;93577.03;;;20.81;100.00
8334;BME280;4204;43.004;23.052;2023-06-26T02:39:34;93585.56;;;20.97;100.00
8334;BME280;4204;43.004;23.052;2023-06-26T02:42:02;93586.34;;;20.98;100.00
8334;BME280;4204;43.004;23.052;2023-06-26T02:44:30;93591.34;;;20.81;100.00
8334;BME280;4204;43.004;23.052;2023-06-26T02:46:58;93583.16;;;20.64;100.00
8334;BME280;4204;43.004;23.052;2023-06-26T02:49:26;93585.06;;;20.63;100.00
8334;BME280;4204;43.004;23.052;2023-06-26T02:51:55;93582.41;;;20.74;100.00
8334;BME280;4204;43.004;23.052;2023-06-26T02:54:27;93588.59;;;20.78;100.00
8334;BME280;4204;43.004;23.052;2023-06-26T02:57:00;93588.25;;;20.86;100.00
8334;BME280;4204;43.004;23.052;2023-06-26T02:59:31;93587.47;;;20.82;100.00
8334;BME280;4204;43.004;23.052;2023-06-26T03:01:59;93589.03;;;20.90;100.00
8334;BME280;4204;43.004;23.052;2023-06-26T03:04:32;93592.91;;;20.96;100.00
8334;BME280;4204;43.004;23.052;2023-06-26T03:07:04;93581.31;;;21.00;100.00
8334;BME280;4204;43.004;23.052;2023-06-26T03:09:32;93582.09;;;21.00;100.00
8334;BME280;4204;43.004;23.052;2023-06-26T03:12:00;93578.22;;;20.94;100.00
8334;BME280;4204;43.004;23.052;2023-06-26T03:14:28;93583.63;;;20.90;100.00
8334;BME280;4204;43.004;23.052;2023-06-26T03:16:58;93575.50;;;20.87;100.00
8334;BME280;4204;43.004;23.052;2023-06-26T03:19:30;93580.91;;;20.94;100.00
8334;BME280;4204;43.004;23.052;2023-06-26T03:22:21;93579.44;;;21.04;100.00
8334;BME280;4204;43.004;23.052;2023-06-26T03:24:48;93580.97;;;21.05;100.00
8334;BME280;4204;43.004;23.052;2023-06-26T03:27:16;93583.69;;;21.08;100.00
8334;BME280;4204;43.004;23.052;2023-06-26T03:29:44;93586.75;;;21.03;100.00
8334;BME280;4204;43.004;23.052;2023-06-26T03:32:12;93596.06;;;21.02;100.00
8334;BME280;4204;43.004;23.052;2023-06-26T03:34:40;93587.84;;;20.88;100.00
8334;BME280;4204;43.004;23.052;2023-06-26T03:37:08;93588.59;;;20.74;100.00
8334;BME280;4204;43.004;23.052;2023-06-26T03:39:37;93590.94;;;20.79;100.00
8334;BME280;4204;43.004;23.052;2023-06-26T03:42:05;93583.97;;;20.78;100.00
8334;BME280;4204;43.004;23.052;2023-06-26T03:44:33;93588.63;;;20.88;100.00
8334;BME280;4204;43.004;23.052;2023-06-26T03:47:01;93590.56;;;20.81;100.00
8334;BME280;4204;43.004;23.052;2023-06-26T03:49:29;93581.63;;;20.70;100.00
8334;BME280;4204;43.004;23.052;2023-06-26T03:51:57;93590.94;;;20.79;100.00
8334;BME280;4204;43.004;23.052;2023-06-26T03:54:25;93583.22;;;20.81;100.00
8334;BME280;4204;43.004;23.052;2023-06-26T03:56:54;93588.66;;;20.99;100.00
8334;BME280;4204;43.004;23.052;2023-06-26T03:59:22;93580.13;;;20.86;100.00
8334;BME280;4204;43.004;23.052;2023-06-26T04:01:50;93585.53;;;20.79;100.00
8334;BME280;4204;43.004;23.052;2023-06-26T04:04:17;93589.78;;;20.84;100.00
8334;BME280;4204;43.004;23.052;2023-06-26T04:06:45;93590.94;;;20.90;100.00
8334;BME280;4204;43.004;23.052;2023-06-26T04:09:13;93583.63;;;20.83;100.00
8334;BME280;4204;43.004;23.052;2023-06-26T04:11:41;93584.75;;;20.79;100.00
8334;BME280;4204;43.004;23.052;2023-06-26T04:14:10;93581.69;;;20.87;100.00
8334;BME280;4204;43.004;23.052;2023-06-26T04:16:38;93582.78;;;20.69;100.00
8334;BME280;4204;43.004;23.052;2023-06-26T04:19:05;93578.53;;;20.71;100.00
8334;BME280;4204;43.004;23.052;2023-06-26T04:21:34;93584.34;;;20.77;100.00
8334;BME280;4204;43.004;23.052;2023-06-26T04:24:01;93590.53;;;20.77;100.00
8334;BME280;4204;43.004;23.052;2023-06-26T04:26:29;93582.41;;;20.70;100.00
8334;BME280;4204;43.004;23.052;2023-06-26T04:28:57;93583.16;;;20.64;100.00
8334;BME280;4204;43.004;23.052;2023-06-26T04:31:27;93573.81;;;20.47;100.00
8334;BME280;4204;43.004;23.052;2023-06-26T04:33:54;93581.97;;;20.58;100.00
8334;BME280;4204;43.004;23.052;2023-06-26T04:36:22;93586.19;;;20.55;100.00
8334;BME280;4204;43.004;23.052;2023-06-26T04:38:54;93589.25;;;20.43;100.00
8334;BME280;4204;43.004;23.052;2023-06-26T04:41:22;93576.09;;;20.38;100.00
8334;BME280;4204;43.004;23.052;2023-06-26T04:43:50;93590.03;;;20.51;100.00
8334;BME280;4204;43.004;23.052;2023-06-26T04:46:18;93585.81;;;20.50;100.00
8334;BME280;4204;43.004;23.052;2023-06-26T04:48:47;93586.97;;;20.52;100.00
8334;BME280;4204;43.004;23.052;2023-06-26T04:51:14;93591.63;;;20.59;100.00
8334;BME280;4204;43.004;23.052;2023-06-26T04:53:42;93587.38;;;20.58;100.00
8334;BME280;4204;43.004;23.052;2023-06-26T04:56:10;93587.03;;;20.70;100.00
8334;BME280;4204;43.004;23.052;2023-06-26T04:58:38;93569.59;;;20.57;100.00
8334;BME280;4204;43.004;23.052;2023-06-26T05:01:05;93584.31;;;20.70;100.00
8334;BME280;4204;43.004;23.052;2023-06-26T05:03:34;93589.34;;;20.71;100.00
8334;BME280;4204;43.004;23.052;2023-06-26T05:06:04;93593.25;;;20.84;100.00
8334;BME280;4204;43.004;23.052;2023-06-26T05:08:32;93592.13;;;20.92;100.00
8334;BME280;4204;43.004;23.052;2023-06-26T05:11:00;93596.38;;;20.93;100.00
8334;BME280;4204;43.004;23.052;2023-06-26T05:13:27;93603.31;;;20.91;100.00
8334;BME280;4204;43.004;23.052;2023-06-26T05:15:55;93593.28;;;20.91;100.00
8334;BME280;4204;43.004;23.052;2023-06-26T05:18:23;93597.94;;;20.98;100.00
8334;BME280;4204;43.004;23.052;2023-06-26T05:20:51;93580.16;;;20.97;100.00
8334;BME280;4204;43.004;23.052;2023-06-26T05:23:20;93603.78;;;21.04;100.00
8334;BME280;4204;43.004;23.052;2023-06-26T05:25:50;93608.75;;;20.98;100.00
8334;BME280;4204;43.004;23.052;2023-06-26T05:28:18;93602.53;;;20.94;100.00
8334;BME280;4204;43.004;23.052;2023-06-26T05:30:46;93603.34;;;21.02;100.00
8334;BME280;4204;43.004;23.052;2023-06-26T05:33:14;93609.19;;;21.04;100.00
8334;BME280;4204;43.004;23.052;2023-06-26T05:35:45;93600.69;;;21.09;100.00
8334;BME280;4204;43.004;23.052;2023-06-26T05:38:14;93607.19;;;21.01;100.00
8334;BME280;4204;43.004;23.052;2023-06-26T05:40:44;93614.59;;;21.04;100.00
8334;BME280;4204;43.004;23.052;2023-06-26T05:43:12;93615.38;;;21.08;100.00
8334;BME280;4204;43.004;23.052;2023-06-26T05:45:40;93621.16;;;21.10;100.00
8334;BME280;4204;43.004;23.052;2023-06-26T05:48:08;93606.88;;;21.13;100.00
8334;BME280;4204;43.004;23.052;2023-06-26T05:50:36;93618.06;;;21.15;100.00
8334;BME280;4204;43.004;23.052;2023-06-26T05:53:05;93616.91;;;21.09;100.00
8334;BME280;4204;43.004;23.052;2023-06-26T05:55:33;93608.78;;;21.09;100.00
8334;BME280;4204;43.004;23.052;2023-06-26T05:58:03;93619.28;;;21.21;100.00
8334;BME280;4204;43.004;23.052;2023-06-26T06:00:31;93611.53;;;21.23;100.00
8334;BME280;4204;43.004;23.052;2023-06-26T06:02:59;93620.44;;;21.34;100.00
8334;BME280;4204;43.004;23.052;2023-06-26T06:05:27;93626.25;;;21.32;100.00
8334;BME280;4204;43.004;23.052;2023-06-26T06:07:55;93621.22;;;21.31;100.00
8334;BME280;4204;43.004;23.052;2023-06-26T06:10:23;93625.47;;;21.39;100.00
8334;BME280;4204;43.004;23.052;2023-06-26T06:12:51;93622.00;;;21.45;100.00
8334;BME280;4204;43.004;23.052;2023-06-26T06:15:22;93626.63;;;21.48;100.00
8334;BME280;4204;43.004;23.052;2023-06-26T06:17:50;93623.94;;;21.41;100.00
8334;BME280;4204;43.004;23.052;2023-06-26T06:20:18;93620.06;;;21.53;100.00
8334;BME280;4204;43.004;23.052;2023-06-26T06:22:46;93620.47;;;21.55;100.00
8334;BME280;4204;43.004;23.052;2023-06-26T06:25:14;93625.09;;;21.61;100.00
8334;BME280;4204;43.004;23.052;2023-06-26T06:27:42;93623.16;;;21.69;100.00
8334;BME280;4204;43.004;23.052;2023-06-26T06:30:11;93623.56;;;21.67;100.00
8334;BME280;4204;43.004;23.052;2023-06-26T06:32:40;93615.81;;;21.59;100.00
8334;BME280;4204;43.004;23.052;2023-06-26T06:35:08;93623.56;;;21.71;100.00
8334;BME280;4204;43.004;23.052;2023-06-26T06:37:36;93620.47;;;21.72;100.00
8334;BME280;4204;43.004;23.052;2023-06-26T06:40:05;93629.75;;;21.75;100.00
8334;BME280;4204;43.004;23.052;2023-06-26T06:42:34;93631.28;;;21.80;100.00
8334;BME280;4204;43.004;23.052;2023-06-26T06:45:02;93628.19;;;21.67;100.00
8334;BME280;4204;43.004;23.052;2023-06-26T06:47:31;93624.72;;;21.66;100.00
8334;BME280;4204;43.004;23.052;2023-06-26T06:50:00;93630.50;;;21.65;100.00
8334;BME280;4204;43.004;23.052;2023-06-26T06:52:35;93628.59;;;21.62;100.00
8334;BME280;4204;43.004;23.052;2023-06-26T06:55:04;93637.09;;;21.67;100.00
8334;BME280;4204;43.004;23.052;2023-06-26T06:57:35;93639.03;;;21.63;100.00
8334;BME280;4204;43.004;23.052;2023-06-26T07:00:06;93635.16;;;21.54;100.00
8334;BME280;4204;43.004;23.052;2023-06-26T07:02:35;93629.75;;;21.54;100.00
8334;BME280;4204;43.004;23.052;2023-06-26T07:05:05;93626.66;;;21.69;100.00
8334;BME280;4204;43.004;23.052;2023-06-26T07:07:34;93631.69;;;21.67;100.00
8334;BME280;4204;43.004;23.052;2023-06-26T07:10:04;93626.66;;;21.77;100.00
8334;BME280;4204;43.004;23.052;2023-06-26T07:12:32;93630.56;;;21.83;100.00
8334;BME280;4204;43.004;23.052;2023-06-26T07:15:01;93619.72;;;21.86;100.00
8334;BME280;4204;43.004;23.052;2023-06-26T07:17:30;93622.44;;;21.93;100.00
8334;BME280;4204;43.004;23.052;2023-06-26T07:19:59;93616.59;;;22.02;100.00
8334;BME280;4204;43.004;23.052;2023-06-26T07:22:28;93620.88;;;22.03;100.00
8334;BME280;4204;43.004;23.052;2023-06-26T07:24:56;93622.81;;;21.95;100.00
8334;BME280;4204;43.004;23.052;2023-06-26T07:27:24;93614.28;;;21.90;100.00
8334;BME280;4204;43.004;23.052;2023-06-26T07:29:52;93611.22;;;21.91;100.00
8334;BME280;4204;43.004;23.052;2023-06-26T07:32:20;93623.59;;;21.99;100.00
8334;BME280;4204;43.004;23.052;2023-06-26T07:34:47;93619.69;;;22.11;100.00
8334;BME280;4204;43.004;23.052;2023-06-26T07:37:15;93622.00;;;22.12;100.00
8334;BME280;4204;43.004;23.052;2023-06-26T07:39:44;93616.59;;;22.16;100.00
8334;BME280;4204;43.004;23.052;2023-06-26T07:42:12;93623.53;;;22.17;100.00
8334;BME280;4204;43.004;23.052;2023-06-26T07:44:41;93620.47;;;22.11;100.00
8334;BME280;4204;43.004;23.052;2023-06-26T07:47:09;93620.47;;;22.15;100.00
8334;BME280;4204;43.004;23.052;2023-06-26T07:49:37;93625.09;;;22.28;100.00
8334;BME280;4204;43.004;23.052;2023-06-26T07:52:06;93620.44;;;22.32;100.00
8334;BME280;4204;43.004;23.052;2023-06-26T07:54:36;93620.78;;;22.45;100.00
8334;BME280;4204;43.004;23.052;2023-06-26T07:57:06;93624.66;;;22.51;100.00
8334;BME280;4204;43.004;23.052;2023-06-26T07:59:35;93621.13;;;22.65;100.00
8334;BME280;4204;43.004;23.052;2023-06-26T08:02:03;93615.28;;;22.77;100.00
8334;BME280;4204;43.004;23.052;2023-06-26T08:04:31;93619.44;;;22.95;100.00
8334;BME280;4204;43.004;23.052;2023-06-26T08:07:00;93623.28;;;23.08;100.00
8334;BME280;4204;43.004;23.052;2023-06-26T08:09:30;93617.38;;;23.20;100.00
8334;BME280;4204;43.004;23.052;2023-06-26T08:11:59;93624.72;;;23.27;100.00
8334;BME280;4204;43.004;23.052;2023-06-26T08:14:28;93636.72;;;23.33;100.00
8334;BME280;4204;43.004;23.052;2023-06-26T08:16:56;93627.03;;;23.28;100.00
8334;BME280;4204;43.004;23.052;2023-06-26T08:19:25;93630.13;;;23.30;100.00
8334;BME280;4204;43.004;23.052;2023-06-26T08:21:53;93627.78;;;23.36;100.00
8334;BME280;4204;43.004;23.052;2023-06-26T08:24:21;93618.47;;;23.37;100.00
8334;BME280;4204;43.004;23.052;2023-06-26T08:26:49;93630.88;;;23.42;100.00
8334;BME280;4204;43.004;23.052;2023-06-26T08:29:16;93626.59;;;23.44;100.00
8334;BME280;4204;43.004;23.052;2023-06-26T08:31:45;93621.03;;;23.62;100.00
8334;BME280;4204;43.004;23.052;2023-06-26T08:34:13;93622.47;;;23.73;100.00
8334;BME280;4204;43.004;23.052;2023-06-26T08:36:41;93627.00;;;23.90;100.00
8334;BME280;4204;43.004;23.052;2023-06-26T08:39:09;93633.13;;;24.05;100.00
8334;BME280;4204;43.004;23.052;2023-06-26T08:41:37;93633.47;;;24.11;100.00
8334;BME280;4204;43.004;23.052;2023-06-26T08:44:05;93630.22;;;24.26;100.00
8334;BME280;4204;43.004;23.052;2023-06-26T08:46:33;93637.16;;;24.31;100.00
8334;BME280;4204;43.004;23.052;2023-06-26T08:49:13;93646.94;;;24.25;100.00
8334;BME280;4204;43.004;23.052;2023-06-26T08:51:45;93638.09;;;24.14;100.00
8334;BME280;4204;43.004;23.052;2023-06-26T08:54:20;93628.00;;;24.14;100.00
8334;BME280;4204;43.004;23.052;2023-06-26T08:56:51;93632.28;;;24.12;100.00
8334;BME280;4204;43.004;23.052;2023-06-26T08:59:19;93628.59;;;24.32;100.00
8334;BME280;4204;43.004;23.052;2023-06-26T09:01:48;93635.53;;;24.37;100.00
8334;BME280;4204;43.004;23.052;2023-06-26T09:04:17;93633.97;;;24.39;100.00
8334;BME280;4204;43.004;23.052;2023-06-26T09:06:45;93636.38;;;24.30;100.00
8334;BME280;4204;43.004;23.052;2023-06-26T09:09:12;93632.50;;;24.31;100.00
8334;BME280;4204;43.004;23.052;2023-06-26T09:11:40;93638.31;;;24.30;100.00
8334;BME280;4204;43.004;23.052;2023-06-26T09:14:09;93627.91;;;24.25;100.00
8334;BME280;4204;43.004;23.052;2023-06-26T09:16:40;93630.53;;;24.35;100.00
8334;BME280;4204;43.004;23.052;2023-06-26T09:19:09;93626.19;;;24.41;100.00
8334;BME280;4204;43.004;23.052;2023-06-26T09:21:40;93624.63;;;24.40;100.00
8334;BME280;4204;43.004;23.052;2023-06-26T09:24:09;93630.88;;;24.37;100.00
8334;BME280;4204;43.004;23.052;2023-06-26T09:26:38;93631.00;;;24.27;100.00
8334;BME280;4204;43.004;23.052;2023-06-26T09:29:06;93629.38;;;24.33;100.00
8334;BME280;4204;43.004;23.052;2023-06-26T09:31:35;93626.50;;;24.47;100.00
8334;BME280;4204;43.004;23.052;2023-06-26T09:34:04;93631.22;;;24.43;100.00
8334;BME280;4204;43.004;23.052;2023-06-26T09:36:33;93630.94;;;24.30;100.00
8334;BME280;4204;43.004;23.052;2023-06-26T09:39:04;93636.34;;;24.34;100.00
8334;BME280;4204;43.004;23.052;2023-06-26T09:41:35;93629.28;;;24.43;100.00
8334;BME280;4204;43.004;23.052;2023-06-26T09:44:05;93627.91;;;24.62;100.00
8334;BME280;4204;43.004;23.052;2023-06-26T09:46:34;93620.44;;;24.69;100.00
8334;BME280;4204;43.004;23.052;2023-06-26T09:49:03;93627.44;;;24.67;100.00
8334;BME280;4204;43.004;23.052;2023-06-26T09:51:31;93622.47;;;24.62;100.00
8334;BME280;4204;43.004;23.052;2023-06-26T09:53:59;93619.75;;;24.62;100.00
8334;BME280;4204;43.004;23.052;2023-06-26T09:56:29;93634.22;;;24.52;100.00
8334;BME280;4204;43.004;23.052;2023-06-26T09:58:58;93616.66;;;24.60;100.00
8334;BME280;4204;43.004;23.052;2023-06-26T10:01:31;93628.75;;;24.55;100.00
8334;BME280;4204;43.004;23.052;2023-06-26T10:03:59;93620.69;;;24.45;100.00
8334;BME280;4204;43.004;23.052;2023-06-26T10:06:33;93612.75;;;24.61;100.00
8334;BME280;4204;43.004;23.052;2023-06-26T10:09:02;93611.59;;;24.62;100.00
8334;BME280;4204;43.004;23.052;2023-06-26T10:11:36;93622.06;;;24.63;100.00
8334;BME280;4204;43.004;23.052;2023-06-26T10:14:07;93624.22;;;24.42;100.00
8334;BME280;4204;43.004;23.052;2023-06-26T10:16:36;93618.47;;;24.36;100.00
8334;BME280;4204;43.004;23.052;2023-06-26T10:19:08;93613.13;;;24.26;100.00
8334;BME280;4204;43.004;23.052;2023-06-26T10:21:38;93625.47;;;24.34;100.00
8334;BME280;4204;43.004;23.052;2023-06-26T10:24:08;93620.34;;;24.43;100.00
8334;BME280;4204;43.004;23.052;2023-06-26T10:26:42;93619.09;;;24.51;100.00
8334;BME280;4204;43.004;23.052;2023-06-26T10:29:12;93618.97;;;24.61;100.00
8334;BME280;4204;43.004;23.052;2023-06-26T10:31:43;93612.97;;;24.77;100.00
8334;BME280;4204;43.004;23.052;2023-06-26T10:34:12;93599.06;;;25.02;100.00
8334;BME280;4204;43.004;23.052;2023-06-26T10:36:58;93613.63;;;25.18;100.00
8334;BME280;4204;43.004;23.052;2023-06-26T10:39:26;93612.50;;;25.16;100.00
8334;BME280;4204;43.004;23.052;2023-06-26T10:42:08;93607.44;;;25.18;100.00
8334;BME280;4204;43.004;23.052;2023-06-26T10:44:40;93602.28;;;25.23;100.00
8334;BME280;4204;43.004;23.052;2023-06-26T10:47:10;93616.13;;;25.06;100.00
8334;BME280;4204;43.004;23.052;2023-06-26T10:49:38;93600.56;;;25.06;100.00
8334;BME280;4204;43.004;23.052;2023-06-26T10:52:07;93608.72;;;25.06;100.00
8334;BME280;4204;43.004;23.052;2023-06-26T10:54:37;93606.84;;;25.03;100.00
8334;BME280;4204;43.004;23.052;2023-06-26T10:57:07;93610.00;;;24.98;100.00
8334;BME280;4204;43.004;23.052;2023-06-26T10:59:39;93593.22;;;25.03;100.00
8334;BME280;4204;43.004;23.052;2023-06-26T11:02:07;93592.94;;;24.94;100.00
8334;BME280;4204;43.004;23.052;2023-06-26T11:04:39;93595.53;;;25.05;100.00
8334;BME280;4204;43.004;23.052;2023-06-26T11:07:20;93591.66;;;25.06;100.00
8334;BME280;4204;43.004;23.052;2023-06-26T11:09:56;93581.13;;;25.08;100.00
8334;BME280;4204;43.004;23.052;2023-06-26T11:12:39;93591.34;;;25.27;100.00
8334;BME280;4204;43.004;23.052;2023-06-26T11:15:08;93584.91;;;25.44;100.00
8334;BME280;4204;43.004;23.052;2023-06-26T11:17:37;93590.63;;;25.49;100.00
8334;BME280;4204;43.004;23.052;2023-06-26T11:20:08;93590.75;;;25.42;100.00
8334;BME280;4204;43.004;23.052;2023-06-26T11:22:39;93583.38;;;25.39;100.00
8334;BME280;4204;43.004;23.052;2023-06-26T11:25:09;93583.81;;;25.64;100.00
8334;BME280;4204;43.004;23.052;2023-06-26T11:27:42;93584.59;;;25.65;100.00
8334;BME280;4204;43.004;23.052;2023-06-26T11:30:21;93587.94;;;25.73;100.00
8334;BME280;4204;43.004;23.052;2023-06-26T11:32:50;93586.31;;;25.79;100.00
8334;BME280;4204;43.004;23.052;2023-06-26T11:35:22;93583.63;;;25.75;100.00
8334;BME280;4204;43.004;23.052;2023-06-26T11:37:56;93578.09;;;25.82;100.00
8334;BME280;4204;43.004;23.052;2023-06-26T11:40:27;93574.34;;;25.96;100.00
8334;BME280;4204;43.004;23.052;2023-06-26T11:43:01;93584.03;;;26.23;100.00
8334;BME280;4204;43.004;23.052;2023-06-26T11:45:30;93585.34;;;26.35;100.00
8334;BME280;4204;43.004;23.052;2023-06-26T11:48:00;93589.63;;;26.36;100.00
8334;BME280;4204;43.004;23.052;2023-06-26T11:50:28;93586.13;;;26.35;100.00
8334;BME280;4204;43.004;23.052;2023-06-26T11:52:56;93580.78;;;26.28;100.00
8334;BME280;4204;43.004;23.052;2023-06-26T11:55:25;93572.34;;;26.23;100.00
8334;BME280;4204;43.004;23.052;2023-06-26T11:57:54;93571.72;;;26.35;100.00
8334;BME280;4204;43.004;23.052;2023-06-26T12:00:25;93585.16;;;26.45;100.00
8334;BME280;4204;43.004;23.052;2023-06-26T12:02:54;93590.69;;;26.42;100.00
8334;BME280;4204;43.004;23.052;2023-06-26T12:05:22;93586.28;;;26.48;100.00
8334;BME280;4204;43.004;23.052;2023-06-26T12:07:50;93586.84;;;26.59;100.00
8334;BME280;4204;43.004;23.052;2023-06-26T12:10:19;93578.09;;;26.68;100.00
8334;BME280;4204;43.004;23.052;2023-06-26T12:12:49;93571.41;;;26.92;100.00
8334;BME280;4204;43.004;23.052;2023-06-26T12:15:17;93575.75;;;26.89;100.00
8334;BME280;4204;43.004;23.052;2023-06-26T12:17:46;93580.22;;;26.99;100.00
8334;BME280;4204;43.004;23.052;2023-06-26T12:20:20;93572.03;;;26.99;100.00
8334;BME280;4204;43.004;23.052;2023-06-26T12:22:49;93561.09;;;26.99;100.00
8334;BME280;4204;43.004;23.052;2023-06-26T12:25:22;93563.97;;;27.12;100.00
8334;BME280;4204;43.004;23.052;2023-06-26T12:27:50;93557.94;;;27.01;100.00
8334;BME280;4204;43.004;23.052;2023-06-26T12:30:18;93562.00;;;27.12;100.00
8334;BME280;4204;43.004;23.052;2023-06-26T12:32:47;93565.78;;;27.18;100.00
8334;BME280;4204;43.004;23.052;2023-06-26T12:35:16;93569.34;;;27.15;100.00
8334;BME280;4204;43.004;23.052;2023-06-26T12:37:43;93568.34;;;26.90;100.00
8334;BME280;4204;43.004;23.052;2023-06-26T12:40:18;93576.38;;;26.97;100.00
8334;BME280;4204;43.004;23.052;2023-06-26T12:42:48;93569.31;;;26.99;100.00
8334;BME280;4204;43.004;23.052;2023-06-26T12:45:16;93565.53;;;27.29;100.00
8334;BME280;4204;43.004;23.052;2023-06-26T12:47:44;93573.38;;;27.27;100.00
8334;BME280;4204;43.004;23.052;2023-06-26T12:50:13;93557.06;;;27.23;100.00
8334;BME280;4204;43.004;23.052;2023-06-26T12:52:40;93559.97;;;27.16;100.00
8334;BME280;4204;43.004;23.052;2023-06-26T12:55:09;93570.22;;;27.29;100.00
8334;BME280;4204;43.004;23.052;2023-06-26T12:57:36;93567.72;;;27.18;100.00
8334;BME280;4204;43.004;23.052;2023-06-26T13:00:05;93573.78;;;27.25;100.00
8334;BME280;4204;43.004;23.052;2023-06-26T13:02:33;93566.34;;;27.10;100.00
8334;BME280;4204;43.004;23.052;2023-06-26T13:05:01;93556.03;;;27.17;100.00
8334;BME280;4204;43.004;23.052;2023-06-26T13:07:30;93557.25;;;27.33;100.00
8334;BME280;4204;43.004;23.052;2023-06-26T13:09:58;93560.38;;;27.51;100.00
8334;BME280;4204;43.004;23.052;2023-06-26T13:12:25;93561.34;;;27.60;100.00